createdAt,value
2018-09-19T00:00:01.882Z,17.5
2018-09-19T00:05:01.552Z,17.4
2018-09-19T00:10:01.332Z,17.4
2018-09-19T00:15:02.012Z,17.3
2018-09-19T00:20:02.147Z,17.3
2018-09-19T00:25:01.716Z,17.2
2018-09-19T00:30:02.172Z,17.2
2018-09-19T00:35:01.545Z,17.1
2018-09-19T00:40:01.834Z,17
2018-09-19T00:45:02.012Z,16.9
2018-09-19T00:50:01.756Z,16.9
2018-09-19T00:55:01.342Z,16.8
2018-09-19T01:00:01.201Z,16.7
2018-09-19T01:05:02.033Z,16.7
2018-09-19T01:10:01.913Z,16.7
2018-09-19T01:15:01.722Z,16.7
2018-09-19T01:20:02.297Z,16.6
2018-09-19T01:25:01.996Z,16.6
2018-09-19T01:30:01.783Z,16.6
2018-09-19T01:35:01.377Z,16.6
2018-09-19T01:40:01.432Z,16.6
2018-09-19T01:45:01.265Z,16.5
2018-09-19T01:50:01.590Z,16.4
2018-09-19T01:55:01.970Z,16.4
2018-09-19T02:00:01.956Z,16.4
2018-09-19T02:05:01.426Z,16.3
2018-09-19T02:10:01.861Z,16.3
2018-09-19T02:15:01.759Z,16.2
2018-09-19T02:20:01.318Z,16.2
2018-09-19T02:25:02.196Z,16.1
2018-09-19T02:30:01.386Z,16
2018-09-19T02:35:01.820Z,16
2018-09-19T02:40:02.214Z,15.9
2018-09-19T02:45:01.595Z,15.9
2018-09-19T02:50:02.135Z,15.9
2018-09-19T02:55:01.824Z,15.8
2018-09-19T03:00:02.325Z,15.8
2018-09-19T03:05:01.589Z,15.8
2018-09-19T03:10:01.546Z,15.7
2018-09-19T03:15:01.212Z,15.7
2018-09-19T03:20:01.963Z,15.7
2018-09-19T03:25:02.132Z,15.7
2018-09-19T03:30:01.438Z,15.7
2018-09-19T03:35:02.227Z,15.7
2018-09-19T03:40:02.145Z,15.7
2018-09-19T03:45:01.875Z,15.7
2018-09-19T03:50:01.355Z,15.7
2018-09-19T03:55:01.435Z,15.6
2018-09-19T04:00:01.691Z,15.6
2018-09-19T04:05:01.233Z,15.6
2018-09-19T04:10:01.523Z,15.5
2018-09-19T04:15:02.000Z,15.5
2018-09-19T04:20:01.368Z,15.4
2018-09-19T04:25:01.869Z,15.4
2018-09-19T04:30:01.305Z,15.4
2018-09-19T04:35:01.418Z,15.3
2018-09-19T04:40:01.654Z,15.3
2018-09-19T04:45:01.588Z,15.3
2018-09-19T04:50:01.222Z,15.2
2018-09-19T04:55:01.912Z,15.2
2018-09-19T05:00:02.117Z,15.2
2018-09-19T05:05:01.422Z,15.2
2018-09-19T05:10:01.450Z,15.1
2018-09-19T05:15:01.241Z,15.1
2018-09-19T05:20:02.029Z,15.1
2018-09-19T05:25:01.523Z,15.1
2018-09-19T05:30:01.882Z,15.2
2018-09-19T05:35:01.562Z,15.3
2018-09-19T05:40:02.038Z,15.4
2018-09-19T05:45:01.672Z,15.5
2018-09-19T05:50:01.381Z,15.6
2018-09-19T05:55:01.237Z,15.7
2018-09-19T06:00:01.532Z,15.9
2018-09-19T06:05:01.890Z,16
2018-09-19T06:10:02.421Z,16.2
2018-09-19T06:15:01.554Z,16.3
2018-09-19T06:20:01.993Z,16.4
2018-09-19T06:25:01.850Z,16.6
2018-09-19T06:30:01.468Z,16.9
2018-09-19T06:35:02.000Z,17
2018-09-19T06:40:02.009Z,17.1
2018-09-19T06:45:02.017Z,17.2
2018-09-19T06:50:01.441Z,17.4
2018-09-19T06:55:02.960Z,17.5
2018-09-19T07:00:01.143Z,17.8
2018-09-19T07:05:02.168Z,18
2018-09-19T07:10:01.652Z,18.2
2018-09-19T07:15:01.286Z,18.5
2018-09-19T07:20:01.798Z,18.6
2018-09-19T07:25:02.575Z,18.6
2018-09-19T07:30:01.900Z,18.8
2018-09-19T07:35:02.048Z,18.9
2018-09-19T07:40:01.877Z,18.9
2018-09-19T07:45:02.322Z,19.1
2018-09-19T07:50:01.892Z,19.3
2018-09-19T07:55:01.249Z,19.6
2018-09-19T08:00:01.613Z,19.9
2018-09-19T08:05:02.104Z,20.2
2018-09-19T08:10:02.076Z,20.4
2018-09-19T08:15:01.644Z,20.7
2018-09-19T08:20:01.927Z,20.8
2018-09-19T08:25:01.740Z,21
2018-09-19T08:30:01.860Z,21.3
2018-09-19T08:35:01.508Z,21.5
2018-09-19T08:40:01.473Z,21.7
2018-09-19T08:45:01.602Z,21.9
2018-09-19T08:50:02.123Z,22.1
2018-09-19T08:55:01.701Z,22.6
2018-09-19T09:00:01.703Z,22.8
2018-09-19T09:05:01.564Z,22.9
2018-09-19T09:10:01.724Z,23.2
2018-09-19T09:15:01.733Z,23.4
2018-09-19T09:20:01.918Z,23.4
2018-09-19T09:25:01.565Z,23.6
2018-09-19T09:30:02.216Z,23.7
2018-09-19T09:35:01.129Z,23.9
2018-09-19T09:40:02.056Z,24
2018-09-19T09:45:01.713Z,24.2
2018-09-19T09:50:01.635Z,24.3
2018-09-19T09:55:01.639Z,24.3
2018-09-19T10:00:01.794Z,24.5
2018-09-19T10:05:02.199Z,24.7
2018-09-19T10:10:02.011Z,24.7
2018-09-19T10:15:01.652Z,24.8
2018-09-19T10:20:01.424Z,25
2018-09-19T10:25:01.934Z,25.2
2018-09-19T10:30:01.867Z,25.3
2018-09-19T10:35:01.556Z,25.7
2018-09-19T10:40:01.724Z,25.8
2018-09-19T10:45:01.639Z,25.8
2018-09-19T10:50:01.366Z,26.1
2018-09-19T10:55:01.699Z,26.3
2018-09-19T11:00:01.898Z,26.3
2018-09-19T11:05:01.588Z,26.5
2018-09-19T11:10:01.830Z,26.6
2018-09-19T11:15:01.614Z,26.8
2018-09-19T11:20:01.388Z,26.8
2018-09-19T11:25:01.432Z,26.7
2018-09-19T11:30:01.758Z,26.9
2018-09-19T11:35:01.563Z,27.3
2018-09-19T11:40:01.491Z,27.1
2018-09-19T11:45:02.088Z,27.1
2018-09-19T11:50:01.116Z,27.1
2018-09-19T11:55:01.913Z,27.6
2018-09-19T12:00:01.528Z,27.5
2018-09-19T12:05:01.380Z,27.6
2018-09-19T12:10:02.848Z,27.5
2018-09-19T12:15:01.574Z,27.9
2018-09-19T12:20:01.685Z,27.5
2018-09-19T12:25:01.254Z,27.7
2018-09-19T12:30:02.129Z,27.7
2018-09-19T12:35:01.707Z,27.8
2018-09-19T12:40:01.214Z,28.1
2018-09-19T12:45:02.226Z,28.2
2018-09-19T12:50:01.195Z,28.2
2018-09-19T12:55:01.525Z,28.1
2018-09-19T13:00:01.856Z,28.3
2018-09-19T13:05:01.608Z,28.5
2018-09-19T13:10:02.078Z,28.2
2018-09-19T13:15:01.135Z,28.1
2018-09-19T13:20:02.379Z,28
2018-09-19T13:25:01.653Z,28.3
2018-09-19T13:30:01.637Z,28.3
2018-09-19T13:35:01.749Z,28.4
2018-09-19T13:40:01.638Z,28.3
2018-09-19T13:45:01.425Z,28.3
2018-09-19T13:50:01.988Z,28.5
2018-09-19T13:55:02.295Z,28.5
2018-09-19T14:00:01.663Z,28.3
2018-09-19T14:05:01.897Z,28.4
2018-09-19T14:10:01.382Z,28.5
2018-09-19T14:15:02.046Z,28.5
2018-09-19T14:20:01.674Z,28.6
2018-09-19T14:25:01.744Z,28.5
2018-09-19T14:30:01.687Z,28.4
2018-09-19T14:35:01.614Z,28.4
2018-09-19T14:40:01.323Z,28
2018-09-19T14:45:02.019Z,27.6
2018-09-19T14:50:01.531Z,27.9
2018-09-19T14:55:01.484Z,27.9
2018-09-19T15:00:01.939Z,27.6
2018-09-19T15:05:02.126Z,27.3
2018-09-19T15:10:01.602Z,27.3
2018-09-19T15:15:02.189Z,27.4
2018-09-19T15:20:01.339Z,27.5
2018-09-19T15:25:01.207Z,27.4
2018-09-19T15:30:01.830Z,27.4
2018-09-19T15:35:01.684Z,27.3
2018-09-19T15:40:01.620Z,27.2
2018-09-19T15:45:01.307Z,27.1
2018-09-19T15:50:02.118Z,27
2018-09-19T15:55:01.866Z,26.9
2018-09-19T16:00:01.407Z,26.9
2018-09-19T16:05:01.295Z,26.9
2018-09-19T16:10:02.064Z,26.9
2018-09-19T16:15:01.922Z,26.8
2018-09-19T16:20:01.868Z,26.7
2018-09-19T16:25:02.298Z,26.6
2018-09-19T16:30:01.595Z,26.4
2018-09-19T16:35:01.655Z,26.3
2018-09-19T16:40:01.436Z,26.1
2018-09-19T16:45:03.208Z,26
2018-09-19T16:50:02.037Z,25.8
2018-09-19T16:55:01.704Z,25.7
2018-09-19T17:00:01.689Z,25.6
2018-09-19T17:05:01.846Z,25.5
2018-09-19T17:10:01.163Z,25.4
2018-09-19T17:15:01.560Z,25.3
2018-09-19T17:20:01.654Z,25.2
2018-09-19T17:25:01.526Z,25.1
2018-09-19T17:30:02.121Z,25
2018-09-19T17:35:02.059Z,24.9
2018-09-19T17:40:01.622Z,24.8
2018-09-19T17:45:01.563Z,24.7
2018-09-19T17:50:01.851Z,24.6
2018-09-19T17:55:02.455Z,24.5
2018-09-19T18:00:01.997Z,24.3
2018-09-19T18:05:01.643Z,24.1
2018-09-19T18:10:01.765Z,24
2018-09-19T18:15:02.830Z,23.9
2018-09-19T18:20:01.388Z,23.8
2018-09-19T18:25:01.944Z,23.7
2018-09-19T18:30:01.575Z,23.6
2018-09-19T18:35:01.955Z,23.5
2018-09-19T18:40:01.376Z,23.4
2018-09-19T18:45:01.721Z,23.3
2018-09-19T18:50:02.299Z,23.1
2018-09-19T18:55:01.714Z,23.1
2018-09-19T19:00:01.515Z,23
2018-09-19T19:05:01.987Z,22.9
2018-09-19T19:10:01.923Z,22.8
2018-09-19T19:15:01.850Z,22.7
2018-09-19T19:20:01.807Z,22.5
2018-09-19T19:25:02.100Z,22.3
2018-09-19T19:30:01.830Z,22.2
2018-09-19T19:35:01.368Z,22
2018-09-19T19:40:01.595Z,22
2018-09-19T19:45:01.540Z,21.8
2018-09-19T19:50:01.363Z,21.7
2018-09-19T19:55:01.816Z,21.6
2018-09-19T20:00:01.192Z,21.4
2018-09-19T20:05:01.840Z,21.3
2018-09-19T20:10:01.450Z,21.1
2018-09-19T20:15:01.676Z,21
2018-09-19T20:20:01.617Z,20.9
2018-09-19T20:25:02.195Z,20.8
2018-09-19T20:30:01.554Z,20.7
2018-09-19T20:35:01.260Z,20.6
2018-09-19T20:40:01.146Z,20.5
2018-09-19T20:45:01.834Z,20.4
2018-09-19T20:50:01.508Z,20.3
2018-09-19T20:55:02.101Z,20.3
2018-09-19T21:00:01.324Z,20.2
2018-09-19T21:05:02.013Z,20.2
2018-09-19T21:10:01.783Z,20.2
2018-09-19T21:15:01.363Z,20.2
2018-09-19T21:20:02.550Z,20.2
2018-09-19T21:25:01.756Z,20.2
2018-09-19T21:30:01.276Z,20.1
2018-09-19T21:35:01.778Z,20.1
2018-09-19T21:40:01.561Z,20
2018-09-19T21:45:02.027Z,20
2018-09-19T21:50:01.476Z,20
2018-09-19T21:55:02.526Z,20
2018-09-19T22:00:01.759Z,20
2018-09-19T22:05:01.262Z,20
2018-09-19T22:10:02.376Z,20
2018-09-19T22:15:01.543Z,20.1
2018-09-19T22:20:01.522Z,20.1
2018-09-19T22:25:01.993Z,20.1
2018-09-19T22:30:01.985Z,20.1
2018-09-19T22:35:01.746Z,20.1
2018-09-19T22:40:01.310Z,20.2
2018-09-19T22:45:02.534Z,20.2
2018-09-19T22:50:01.172Z,20.1
2018-09-19T22:55:01.637Z,20.2
2018-09-19T23:00:01.754Z,20.1
2018-09-19T23:05:02.240Z,20.1
2018-09-19T23:10:01.861Z,20.1
2018-09-19T23:15:02.115Z,20.1
2018-09-19T23:20:02.493Z,20
2018-09-19T23:25:01.460Z,19.9
2018-09-19T23:30:01.195Z,19.8
2018-09-19T23:35:01.612Z,19.8
2018-09-19T23:40:01.595Z,19.8
2018-09-19T23:45:01.730Z,19.8
2018-09-19T23:50:01.265Z,19.8
2018-09-19T23:55:01.977Z,19.8
